createdAt,value
2023-01-25T00:00:29.215Z,76.17
2023-01-25T00:02:55.955Z,76.12
2023-01-25T00:05:23.036Z,76.01
2023-01-25T00:07:49.709Z,76.26
2023-01-25T00:10:16.413Z,76.38
2023-01-25T00:12:43.438Z,76.09
2023-01-25T00:15:10.867Z,76.37
2023-01-25T00:17:37.789Z,76.12
2023-01-25T00:20:04.981Z,76.10
2023-01-25T00:22:31.629Z,76.08
2023-01-25T00:24:58.394Z,76.35
2023-01-25T00:27:25.325Z,75.96
2023-01-25T00:29:52.043Z,76.01
2023-01-25T00:32:21.901Z,76.46
2023-01-25T00:34:52.589Z,76.41
2023-01-25T00:37:21.657Z,76.07
2023-01-25T00:39:48.522Z,76.28
2023-01-25T00:42:17.054Z,76.66
2023-01-25T00:44:43.862Z,76.37
2023-01-25T00:47:11.429Z,76.53
2023-01-25T00:49:39.907Z,76.15
2023-01-25T00:52:07.795Z,76.16
2023-01-25T00:54:34.551Z,76.45
2023-01-25T00:57:01.487Z,76.16
2023-01-25T00:59:28.210Z,76.43
2023-01-25T01:01:55.025Z,76.25
2023-01-25T01:04:25.237Z,76.11
2023-01-25T01:06:55.325Z,76.00
2023-01-25T01:09:23.881Z,76.35
2023-01-25T01:11:50.836Z,76.42
2023-01-25T01:14:17.900Z,75.94
2023-01-25T01:16:44.653Z,76.04
2023-01-25T01:19:11.559Z,76.09
2023-01-25T01:21:38.514Z,76.54
2023-01-25T01:24:05.771Z,76.45
2023-01-25T01:26:32.676Z,76.86
2023-01-25T01:28:59.644Z,76.46
2023-01-25T01:31:26.831Z,76.43
2023-01-25T01:33:56.309Z,76.26
2023-01-25T01:36:25.848Z,76.22
2023-01-25T01:38:52.675Z,76.33
2023-01-25T01:41:20.239Z,76.35
2023-01-25T01:43:47.603Z,76.60
2023-01-25T01:46:22.372Z,76.32
2023-01-25T01:49:06.948Z,76.59
2023-01-25T01:51:42.727Z,76.46
2023-01-25T01:54:32.563Z,76.60
2023-01-25T01:57:05.475Z,76.23
2023-01-25T01:59:37.731Z,76.46
2023-01-25T02:02:04.724Z,76.11
2023-01-25T02:04:33.046Z,76.39
2023-01-25T02:07:05.933Z,76.59
2023-01-25T02:09:36.201Z,76.21
2023-01-25T02:12:04.591Z,76.24
2023-01-25T02:14:31.569Z,76.09
2023-01-25T02:16:58.621Z,76.14
2023-01-25T02:19:50.249Z,76.12
2023-01-25T02:22:23.132Z,76.25
2023-01-25T02:25:19.890Z,76.17
2023-01-25T02:27:53.814Z,76.15
2023-01-25T02:30:21.134Z,76.16
2023-01-25T02:32:47.876Z,76.11
2023-01-25T02:35:36.838Z,76.47
2023-01-25T02:38:04.498Z,76.06
2023-01-25T02:40:32.928Z,76.70
2023-01-25T02:42:59.678Z,76.21
2023-01-25T02:45:29.777Z,76.23
2023-01-25T02:47:56.445Z,76.04
2023-01-25T02:50:23.304Z,76.00
2023-01-25T02:52:50.044Z,76.33
2023-01-25T02:55:16.722Z,76.37
2023-01-25T02:57:43.669Z,76.56
2023-01-25T03:00:11.140Z,76.06
2023-01-25T03:02:37.925Z,75.91
2023-01-25T03:05:05.072Z,76.51
2023-01-25T03:07:31.813Z,76.30
2023-01-25T03:09:58.453Z,76.84
2023-01-25T03:12:25.351Z,76.29
2023-01-25T03:14:52.048Z,76.18
2023-01-25T03:17:18.757Z,76.45
2023-01-25T03:19:45.887Z,76.43
2023-01-25T03:22:12.568Z,76.36
2023-01-25T03:24:39.363Z,76.16
2023-01-25T03:27:18.579Z,75.92
2023-01-25T03:29:46.091Z,76.05
2023-01-25T03:32:12.907Z,76.04
2023-01-25T03:34:39.760Z,76.10
2023-01-25T03:37:07.103Z,75.97
2023-01-25T03:39:33.880Z,76.01
2023-01-25T03:42:00.737Z,76.15
2023-01-25T03:44:27.505Z,76.18
2023-01-25T03:46:54.199Z,75.95
2023-01-25T03:49:21.090Z,76.07
2023-01-25T03:51:47.892Z,75.91
2023-01-25T03:54:14.642Z,76.10
2023-01-25T03:56:42.662Z,75.94
2023-01-25T03:59:11.354Z,75.92
2023-01-25T04:01:38.399Z,76.16
2023-01-25T04:04:05.169Z,76.04
2023-01-25T04:06:31.924Z,75.68
2023-01-25T04:08:58.690Z,75.71
2023-01-25T04:11:25.450Z,76.03
2023-01-25T04:13:52.200Z,75.79
2023-01-25T04:16:18.920Z,76.35
2023-01-25T04:18:45.713Z,75.98
2023-01-25T04:21:12.438Z,75.88
2023-01-25T04:23:39.099Z,76.36
2023-01-25T04:26:07.857Z,76.09
2023-01-25T04:28:35.751Z,76.03
2023-01-25T04:31:03.750Z,75.77
2023-01-25T04:33:30.761Z,75.70
2023-01-25T04:35:57.745Z,75.99
2023-01-25T04:38:24.825Z,76.15
2023-01-25T04:40:52.670Z,75.80
2023-01-25T04:43:20.852Z,75.81
2023-01-25T04:45:47.728Z,75.47
2023-01-25T04:48:15.327Z,75.75
2023-01-25T04:50:43.177Z,75.58
2023-01-25T04:53:12.043Z,75.68
2023-01-25T04:55:39.676Z,75.62
2023-01-25T04:58:06.885Z,75.78
2023-01-25T05:00:33.681Z,75.39
2023-01-25T05:03:00.431Z,76.08
2023-01-25T05:05:27.375Z,75.81
2023-01-25T05:07:54.058Z,75.56
2023-01-25T05:10:20.834Z,75.56
2023-01-25T05:12:47.587Z,75.36
2023-01-25T05:15:14.564Z,75.65
2023-01-25T05:17:41.465Z,75.66
2023-01-25T05:20:08.664Z,75.40
2023-01-25T05:22:35.405Z,75.50
2023-01-25T05:25:03.920Z,75.81
2023-01-25T05:27:30.653Z,75.68
2023-01-25T05:29:57.874Z,75.68
2023-01-25T05:32:25.122Z,75.36
2023-01-25T05:34:52.031Z,75.68
2023-01-25T05:37:20.504Z,75.66
2023-01-25T05:39:47.451Z,75.42
2023-01-25T05:42:17.158Z,75.65
2023-01-25T05:44:46.125Z,75.64
2023-01-25T05:47:16.217Z,75.88
2023-01-25T05:49:42.866Z,75.58
2023-01-25T05:52:15.325Z,75.71
2023-01-25T05:54:42.281Z,75.70
2023-01-25T05:57:09.063Z,75.78
2023-01-25T05:59:35.794Z,75.77
2023-01-25T06:02:02.616Z,75.71
2023-01-25T06:04:29.458Z,75.33
2023-01-25T06:06:56.122Z,75.20
2023-01-25T06:09:23.611Z,75.20
2023-01-25T06:11:50.409Z,75.23
2023-01-25T06:14:17.330Z,75.36
2023-01-25T06:16:44.259Z,75.63
2023-01-25T06:19:13.381Z,75.47
2023-01-25T06:21:40.010Z,75.55
2023-01-25T06:24:07.557Z,75.29
2023-01-25T06:26:34.253Z,75.30
2023-01-25T06:29:00.927Z,75.20
2023-01-25T06:31:27.920Z,75.31
2023-01-25T06:33:54.632Z,75.53
2023-01-25T06:36:22.602Z,75.53
2023-01-25T06:38:52.978Z,75.17
2023-01-25T06:41:20.507Z,74.97
2023-01-25T06:43:48.171Z,75.39
2023-01-25T06:46:15.412Z,75.17
2023-01-25T06:48:43.144Z,75.40
2023-01-25T06:51:12.501Z,75.32
2023-01-25T06:53:43.935Z,75.13
2023-01-25T06:56:13.299Z,75.26
2023-01-25T06:58:40.588Z,75.20
2023-01-25T07:01:27.870Z,75.21
2023-01-25T07:03:57.400Z,75.24
2023-01-25T07:06:25.677Z,75.16
2023-01-25T07:08:52.689Z,75.35
2023-01-25T07:11:19.596Z,75.41
2023-01-25T07:13:47.767Z,75.24
2023-01-25T07:16:17.516Z,75.52
2023-01-25T07:18:44.592Z,75.40
2023-01-25T07:21:14.342Z,75.53
2023-01-25T07:23:41.764Z,75.18
2023-01-25T07:26:25.311Z,75.29
2023-01-25T07:28:53.214Z,75.30
2023-01-25T07:31:20.845Z,75.25
2023-01-25T07:33:49.748Z,75.60
2023-01-25T07:36:17.107Z,75.54
2023-01-25T07:38:43.933Z,75.59
2023-01-25T07:41:10.987Z,75.24
2023-01-25T07:43:38.096Z,75.18
2023-01-25T07:46:07.712Z,75.72
2023-01-25T07:48:34.749Z,75.70
2023-01-25T07:51:13.175Z,75.74
2023-01-25T07:53:41.495Z,75.49
2023-01-25T07:56:09.823Z,75.64
2023-01-25T07:58:37.067Z,75.72
2023-01-25T08:01:08.568Z,75.78
2023-01-25T08:03:35.257Z,75.95
2023-01-25T08:06:02.039Z,76.01
2023-01-25T08:08:28.971Z,75.93
2023-01-25T08:10:55.613Z,75.98
2023-01-25T08:13:22.532Z,76.06
2023-01-25T08:15:56.143Z,76.20
2023-01-25T08:18:22.970Z,75.74
2023-01-25T08:20:49.748Z,76.17
2023-01-25T08:23:16.780Z,75.92
2023-01-25T08:25:43.585Z,75.68
2023-01-25T08:28:10.512Z,75.81
2023-01-25T08:30:41.236Z,75.92
2023-01-25T08:33:12.955Z,75.88
2023-01-25T08:35:39.949Z,76.22
2023-01-25T08:38:06.767Z,75.93
2023-01-25T08:40:35.864Z,76.25
2023-01-25T08:43:05.057Z,75.99
2023-01-25T08:45:34.692Z,75.90
2023-01-25T08:48:01.911Z,75.84
2023-01-25T08:50:29.264Z,75.89
2023-01-25T08:52:56.411Z,75.84
2023-01-25T08:55:23.088Z,75.96
2023-01-25T08:57:49.877Z,76.27
2023-01-25T09:00:17.686Z,76.13
2023-01-25T09:02:44.379Z,76.26
2023-01-25T09:05:11.085Z,76.02
2023-01-25T09:07:38.978Z,76.02
2023-01-25T09:10:09.283Z,75.85
2023-01-25T09:12:36.504Z,75.96
2023-01-25T09:15:04.072Z,75.98
2023-01-25T09:17:30.768Z,76.20
2023-01-25T09:19:57.573Z,75.76
2023-01-25T09:22:24.364Z,75.82
2023-01-25T09:24:53.956Z,76.16
2023-01-25T09:27:20.816Z,76.36
2023-01-25T09:30:00.927Z,76.22
2023-01-25T09:32:29.111Z,76.11
2023-01-25T09:34:56.184Z,75.97
2023-01-25T09:37:23.117Z,76.07
2023-01-25T09:39:50.272Z,76.11
2023-01-25T09:42:25.181Z,76.18
2023-01-25T09:45:01.988Z,76.23
2023-01-25T09:47:44.298Z,76.08
2023-01-25T09:50:28.185Z,76.24
2023-01-25T09:53:19.823Z,76.41
2023-01-25T09:55:54.375Z,76.50
2023-01-25T09:58:44.876Z,75.98
2023-01-25T10:01:39.314Z,76.23
2023-01-25T10:04:13.356Z,76.07
2023-01-25T10:06:46.055Z,76.12
2023-01-25T10:09:33.288Z,76.28
2023-01-25T10:12:06.700Z,76.30
2023-01-25T10:14:35.820Z,76.20
2023-01-25T10:17:09.587Z,76.32
2023-01-25T10:19:51.338Z,76.65
2023-01-25T10:22:28.937Z,76.62
2023-01-25T10:25:24.563Z,76.42
2023-01-25T10:28:02.787Z,76.40
2023-01-25T10:31:02.240Z,76.37
2023-01-25T10:33:31.406Z,76.20
2023-01-25T10:36:01.733Z,76.42
2023-01-25T10:38:35.164Z,76.56
2023-01-25T10:41:52.783Z,76.63
2023-01-25T10:44:22.595Z,76.52
2023-01-25T10:46:52.280Z,76.69
2023-01-25T10:49:30.997Z,76.60
2023-01-25T10:52:12.612Z,76.72
2023-01-25T10:54:39.512Z,76.54
2023-01-25T10:57:08.312Z,76.55
2023-01-25T10:59:36.611Z,76.40
2023-01-25T11:02:38.352Z,76.95
2023-01-25T11:05:38.092Z,76.91
2023-01-25T11:08:29.982Z,77.09
2023-01-25T11:10:57.466Z,76.70
2023-01-25T11:13:33.547Z,76.75
2023-01-25T11:16:01.605Z,76.99
2023-01-25T11:18:33.917Z,76.64
2023-01-25T11:21:25.847Z,76.67
2023-01-25T11:24:06.450Z,76.81
2023-01-25T11:26:34.119Z,77.20
2023-01-25T11:29:10.907Z,77.18
2023-01-25T11:31:38.388Z,76.80
2023-01-25T11:34:10.330Z,76.66
2023-01-25T11:37:02.222Z,76.98
2023-01-25T11:39:52.935Z,76.68
2023-01-25T11:42:58.681Z,76.86
2023-01-25T11:45:34.563Z,76.97
2023-01-25T11:48:20.322Z,76.92
2023-01-25T11:51:18.883Z,77.03
2023-01-25T11:54:03.864Z,77.25
2023-01-25T11:56:40.195Z,76.99
2023-01-25T11:59:28.152Z,76.93
2023-01-25T12:02:16.734Z,77.18
2023-01-25T12:04:59.762Z,77.00
2023-01-25T12:07:59.397Z,77.18
2023-01-25T12:10:44.068Z,76.93
2023-01-25T12:13:41.254Z,77.51
2023-01-25T12:16:20.483Z,77.24
2023-01-25T12:19:18.171Z,77.36
2023-01-25T12:22:17.207Z,77.40
2023-01-25T12:25:14.984Z,77.43
2023-01-25T12:27:51.058Z,77.41
2023-01-25T12:30:35.463Z,77.52
2023-01-25T12:33:14.328Z,77.15
2023-01-25T12:36:04.716Z,77.57
2023-01-25T12:38:45.313Z,77.08
2023-01-25T12:41:33.421Z,77.59
2023-01-25T12:44:37.855Z,77.19
2023-01-25T12:47:25.940Z,77.59
2023-01-25T12:49:59.339Z,77.45
2023-01-25T12:52:31.984Z,77.69
2023-01-25T12:55:08.330Z,77.52
2023-01-25T12:58:07.564Z,77.44
2023-01-25T13:01:00.976Z,77.53
2023-01-25T13:03:35.351Z,77.66
2023-01-25T13:06:21.335Z,77.81
2023-01-25T13:08:57.195Z,77.54
2023-01-25T13:11:31.214Z,77.67
2023-01-25T13:14:16.421Z,77.49
2023-01-25T13:17:21.322Z,77.53
2023-01-25T13:38:01.149Z,77.73
2023-01-25T13:40:30.681Z,78.10
2023-01-25T13:43:19.651Z,77.40
2023-01-25T13:45:50.554Z,77.80
2023-01-25T13:48:26.311Z,77.51
2023-01-25T13:51:01.906Z,77.57
2023-01-25T13:53:35.473Z,77.43
2023-01-25T13:56:03.438Z,77.30
2023-01-25T13:58:39.102Z,77.73
2023-01-25T14:01:20.720Z,77.79
2023-01-25T14:03:59.817Z,77.68
2023-01-25T14:06:36.290Z,77.59
2023-01-25T14:09:10.477Z,77.91
2023-01-25T14:11:50.006Z,77.57
2023-01-25T14:14:19.268Z,77.64
2023-01-25T14:16:46.987Z,77.89
2023-01-25T14:19:21.537Z,77.94
2023-01-25T14:21:48.235Z,77.69
2023-01-25T14:24:19.318Z,77.49
2023-01-25T14:26:47.926Z,77.61
2023-01-25T14:29:35.419Z,77.50
2023-01-25T14:32:03.241Z,77.92
2023-01-25T14:34:30.056Z,78.08
2023-01-25T14:37:14.386Z,77.69
2023-01-25T14:39:41.155Z,77.71
2023-01-25T14:42:08.235Z,77.50
2023-01-25T14:44:35.252Z,77.57
2023-01-25T14:47:31.311Z,77.87
2023-01-25T14:50:32.105Z,77.58
2023-01-25T14:53:20.856Z,77.54
2023-01-25T14:55:49.432Z,77.94
2023-01-25T14:58:23.655Z,77.91
2023-01-25T15:01:02.850Z,78.05
2023-01-25T15:03:31.240Z,77.71
2023-01-25T15:06:02.864Z,78.08
2023-01-25T15:08:35.873Z,77.82
2023-01-25T15:11:22.075Z,77.96
2023-01-25T15:13:49.140Z,77.85
2023-01-25T15:16:18.864Z,78.09
2023-01-25T15:18:47.478Z,77.78
2023-01-25T15:21:25.599Z,77.79
2023-01-25T15:23:54.297Z,77.84
2023-01-25T15:26:26.205Z,77.97
2023-01-25T15:28:55.498Z,77.86
2023-01-25T15:31:26.578Z,78.18
2023-01-25T15:33:56.888Z,78.24
2023-01-25T15:36:24.472Z,77.89
2023-01-25T15:38:51.949Z,78.13
2023-01-25T15:41:18.804Z,78.31
2023-01-25T15:43:47.074Z,78.42
2023-01-25T15:46:22.012Z,78.22
2023-01-25T15:48:50.663Z,78.35
2023-01-25T15:51:17.401Z,78.02
2023-01-25T15:53:45.155Z,78.05
2023-01-25T15:56:20.837Z,78.52
2023-01-25T15:58:51.230Z,78.14
2023-01-25T16:01:18.901Z,78.50
2023-01-25T16:03:45.724Z,78.02
2023-01-25T16:06:28.554Z,78.59
2023-01-25T16:08:55.880Z,78.18
2023-01-25T16:11:23.133Z,78.64
2023-01-25T16:13:50.012Z,78.69
2023-01-25T16:16:23.375Z,78.70
2023-01-25T16:18:50.172Z,78.36
2023-01-25T16:21:17.133Z,78.60
2023-01-25T16:23:44.026Z,78.67
2023-01-25T16:26:24.489Z,78.80
2023-01-25T16:28:51.815Z,78.44
2023-01-25T16:31:31.207Z,79.05
2023-01-25T16:33:59.341Z,78.51
2023-01-25T16:36:26.207Z,78.71
2023-01-25T16:38:53.192Z,78.36
2023-01-25T16:41:20.087Z,78.42
2023-01-25T16:43:48.720Z,78.60
2023-01-25T16:46:15.503Z,78.51
2023-01-25T16:48:43.280Z,78.83
2023-01-25T16:51:18.219Z,78.43
2023-01-25T16:53:46.298Z,78.40
2023-01-25T16:56:29.524Z,78.56
2023-01-25T16:59:00.428Z,78.86
2023-01-25T17:01:27.701Z,78.74
2023-01-25T17:03:55.788Z,78.67
2023-01-25T17:06:28.514Z,78.93
2023-01-25T17:08:57.910Z,78.91
2023-01-25T17:11:25.219Z,78.50
2023-01-25T17:13:54.808Z,79.12
2023-01-25T17:16:24.086Z,78.77
2023-01-25T17:18:55.798Z,78.66
2023-01-25T17:21:22.874Z,78.97
2023-01-25T17:23:50.470Z,79.08
2023-01-25T17:26:19.658Z,79.04
2023-01-25T17:28:47.033Z,78.91
2023-01-25T17:31:26.621Z,78.71
2023-01-25T17:33:54.351Z,79.18
2023-01-25T17:36:21.273Z,79.12
2023-01-25T17:38:48.582Z,78.87
2023-01-25T17:41:17.114Z,79.02
2023-01-25T17:43:43.926Z,78.99
2023-01-25T17:46:15.062Z,79.01
2023-01-25T17:48:41.910Z,79.21
2023-01-25T17:51:08.891Z,79.18
2023-01-25T17:53:35.833Z,79.45
2023-01-25T17:56:04.681Z,79.67
2023-01-25T17:58:34.173Z,79.55
2023-01-25T18:01:12.967Z,79.58
2023-01-25T18:03:41.855Z,79.80
2023-01-25T18:06:11.975Z,79.53
2023-01-25T18:08:49.580Z,79.59
2023-01-25T18:11:22.637Z,79.87
2023-01-25T18:13:52.645Z,79.53
2023-01-25T18:16:24.128Z,79.73
2023-01-25T18:18:52.400Z,79.59
2023-01-25T18:21:24.312Z,80.07
2023-01-25T18:24:03.490Z,80.59
2023-01-25T18:26:34.655Z,80.04
2023-01-25T18:29:26.559Z,80.26
2023-01-25T18:31:53.383Z,80.26
2023-01-25T18:34:20.365Z,79.78
2023-01-25T18:36:48.686Z,79.90
2023-01-25T18:39:15.428Z,80.08
2023-01-25T18:41:44.647Z,79.97
2023-01-25T18:44:11.578Z,80.09
2023-01-25T18:46:40.534Z,80.27
2023-01-25T18:49:07.343Z,80.32
2023-01-25T18:51:38.916Z,80.50
2023-01-25T18:54:11.135Z,80.37
2023-01-25T18:56:38.022Z,80.30
2023-01-25T18:59:04.811Z,80.37
2023-01-25T19:01:31.848Z,80.47
2023-01-25T19:03:58.721Z,80.74
2023-01-25T19:06:25.681Z,80.42
2023-01-25T19:08:54.377Z,80.41
2023-01-25T19:11:22.277Z,80.84
2023-01-25T19:13:50.143Z,80.89
2023-01-25T19:16:24.599Z,80.66
2023-01-25T19:18:53.379Z,80.69
2023-01-25T19:21:24.940Z,80.71
2023-01-25T19:23:52.806Z,81.05
2023-01-25T19:26:21.512Z,81.04
2023-01-25T19:28:48.427Z,80.75
2023-01-25T19:31:21.309Z,81.13
2023-01-25T19:33:48.731Z,80.97
2023-01-25T19:36:19.122Z,80.95
2023-01-25T19:38:47.673Z,81.22
2023-01-25T19:41:17.892Z,80.70
2023-01-25T19:43:44.801Z,81.03
2023-01-25T19:46:14.275Z,80.82
2023-01-25T19:48:42.251Z,80.87
2023-01-25T19:51:16.895Z,81.10
2023-01-25T19:53:46.556Z,81.27
2023-01-25T19:56:16.218Z,80.92
2023-01-25T19:58:47.584Z,80.91
2023-01-25T20:01:17.205Z,81.19
2023-01-25T20:03:44.068Z,81.28
2023-01-25T20:06:12.349Z,81.26
2023-01-25T20:08:41.848Z,81.10
2023-01-25T20:11:12.479Z,80.94
2023-01-25T20:13:40.517Z,80.95
2023-01-25T20:16:08.216Z,81.11
2023-01-25T20:18:35.072Z,81.20
2023-01-25T20:21:07.836Z,81.36
2023-01-25T20:23:36.863Z,80.91
2023-01-25T20:26:16.444Z,81.43
2023-01-25T20:28:44.832Z,80.99
2023-01-25T20:31:21.489Z,81.35
2023-01-25T20:33:49.318Z,81.03
2023-01-25T20:36:16.644Z,81.26
2023-01-25T20:38:43.786Z,81.50
2023-01-25T20:41:14.277Z,81.24
2023-01-25T20:43:52.301Z,81.10
2023-01-25T20:46:21.030Z,81.24
2023-01-25T20:48:48.309Z,81.39
2023-01-25T20:51:17.312Z,81.12
2023-01-25T20:53:45.789Z,81.11
2023-01-25T20:56:14.104Z,81.39
2023-01-25T20:58:41.797Z,81.69
2023-01-25T21:01:16.588Z,81.45
2023-01-25T21:03:43.455Z,81.74
2023-01-25T21:06:10.488Z,81.53
2023-01-25T21:08:37.211Z,81.55
2023-01-25T21:11:04.476Z,81.58
2023-01-25T21:13:31.545Z,81.55
2023-01-25T21:16:10.884Z,81.32
2023-01-25T21:18:43.645Z,81.31
2023-01-25T21:21:16.428Z,81.21
2023-01-25T21:23:45.143Z,81.31
2023-01-25T21:26:20.931Z,81.61
2023-01-25T21:28:48.822Z,81.41
2023-01-25T21:31:23.798Z,81.82
2023-01-25T21:33:51.234Z,81.40
2023-01-25T21:36:19.082Z,81.25
2023-01-25T21:38:48.149Z,81.04
2023-01-25T21:41:20.095Z,81.44
2023-01-25T21:44:08.682Z,81.75
2023-01-25T21:46:35.969Z,81.65
2023-01-25T21:49:24.678Z,81.26
2023-01-25T21:51:53.694Z,81.93
2023-01-25T21:54:22.765Z,81.67
2023-01-25T21:56:51.548Z,81.47
2023-01-25T21:59:18.410Z,81.76
2023-01-25T22:01:45.832Z,81.80
2023-01-25T22:04:14.105Z,81.77
2023-01-25T22:06:41.735Z,81.34
2023-01-25T22:09:09.377Z,81.38
2023-01-25T22:11:36.840Z,81.50
2023-01-25T22:14:03.575Z,81.57
2023-01-25T22:16:30.596Z,81.45
2023-01-25T22:18:58.028Z,81.46
2023-01-25T22:21:31.199Z,81.82
2023-01-25T22:24:03.355Z,81.87
2023-01-25T22:26:39.270Z,81.59
2023-01-25T22:29:06.751Z,81.58
2023-01-25T22:31:33.795Z,81.56
2023-01-25T22:34:00.898Z,82.27
2023-01-25T22:36:29.600Z,82.03
2023-01-25T22:38:57.181Z,81.77
2023-01-25T22:41:26.825Z,81.86
2023-01-25T22:43:54.643Z,81.49
2023-01-25T22:46:24.399Z,81.65
2023-01-25T22:48:51.221Z,81.75
2023-01-25T22:51:20.875Z,81.72
2023-01-25T22:53:47.899Z,81.93
2023-01-25T22:56:29.143Z,82.15
2023-01-25T22:58:56.132Z,81.81
2023-01-25T23:01:31.423Z,81.70
2023-01-25T23:03:58.845Z,82.19
2023-01-25T23:06:31.275Z,81.71
2023-01-25T23:09:00.165Z,82.00
2023-01-25T23:11:46.950Z,81.83
2023-01-25T23:14:32.331Z,81.77
2023-01-25T23:17:17.648Z,81.71
2023-01-25T23:19:44.585Z,81.82
2023-01-25T23:22:11.340Z,81.73
2023-01-25T23:24:38.027Z,81.99
2023-01-25T23:27:04.846Z,82.02
2023-01-25T23:29:31.842Z,81.98
2023-01-25T23:31:58.548Z,82.13
2023-01-25T23:34:26.194Z,82.04
2023-01-25T23:36:52.903Z,81.90
2023-01-25T23:39:19.720Z,81.83
2023-01-25T23:41:46.568Z,81.98
2023-01-25T23:44:13.385Z,82.13
2023-01-25T23:46:40.173Z,82.17
2023-01-25T23:49:06.961Z,81.89
2023-01-25T23:51:33.800Z,82.05
2023-01-25T23:54:00.408Z,81.83
2023-01-25T23:56:27.614Z,82.21
2023-01-25T23:58:54.301Z,82.05
